sensor_id;sensor_type;location;lat;lon;timestamp;P1;durP1;ratioP1;P2;durP2;ratioP2
4806;SDS011;2417;52.482;13.432;2023-03-01T00:00:19;27.63;;;13.10;;
4806;SDS011;2417;52.482;13.432;2023-03-01T00:02:47;31.90;;;14.60;;
4806;SDS011;2417;52.482;13.432;2023-03-01T00:05:15;30.40;;;13.97;;
4806;SDS011;2417;52.482;13.432;2023-03-01T00:07:44;30.67;;;14.83;;
4806;SDS011;2417;52.482;13.432;2023-03-01T00:10:12;43.47;;;15.10;;
4806;SDS011;2417;52.482;13.432;2023-03-01T00:12:40;58.83;;;26.20;;
4806;SDS011;2417;52.482;13.432;2023-03-01T00:15:08;69.43;;;29.57;;
4806;SDS011;2417;52.482;13.432;2023-03-01T00:17:36;65.50;;;30.67;;
4806;SDS011;2417;52.482;13.432;2023-03-01T00:20:05;62.73;;;26.93;;
4806;SDS011;2417;52.482;13.432;2023-03-01T00:22:34;82.87;;;36.20;;
4806;SDS011;2417;52.482;13.432;2023-03-01T00:25:04;67.03;;;27.70;;
4806;SDS011;2417;52.482;13.432;2023-03-01T00:27:32;54.00;;;26.63;;
4806;SDS011;2417;52.482;13.432;2023-03-01T00:29:59;62.77;;;28.17;;
4806;SDS011;2417;52.482;13.432;2023-03-01T00:32:27;37.57;;;18.20;;
4806;SDS011;2417;52.482;13.432;2023-03-01T00:34:55;63.10;;;30.00;;
4806;SDS011;2417;52.482;13.432;2023-03-01T00:37:23;65.27;;;32.27;;
4806;SDS011;2417;52.482;13.432;2023-03-01T00:39:51;53.63;;;24.80;;
4806;SDS011;2417;52.482;13.432;2023-03-01T00:42:21;43.37;;;22.10;;
4806;SDS011;2417;52.482;13.432;2023-03-01T00:44:49;72.13;;;31.37;;
4806;SDS011;2417;52.482;13.432;2023-03-01T00:47:18;59.00;;;25.10;;
4806;SDS011;2417;52.482;13.432;2023-03-01T00:49:46;69.43;;;32.80;;
4806;SDS011;2417;52.482;13.432;2023-03-01T00:52:15;48.10;;;23.33;;
4806;SDS011;2417;52.482;13.432;2023-03-01T00:54:43;57.20;;;26.07;;
4806;SDS011;2417;52.482;13.432;2023-03-01T00:57:11;75.97;;;35.40;;
4806;SDS011;2417;52.482;13.432;2023-03-01T00:59:40;64.03;;;29.40;;
4806;SDS011;2417;52.482;13.432;2023-03-01T01:02:08;61.00;;;26.30;;
4806;SDS011;2417;52.482;13.432;2023-03-01T01:04:35;48.13;;;22.40;;
4806;SDS011;2417;52.482;13.432;2023-03-01T01:07:03;78.83;;;39.30;;
4806;SDS011;2417;52.482;13.432;2023-03-01T01:09:32;46.33;;;22.43;;
4806;SDS011;2417;52.482;13.432;2023-03-01T01:12:00;55.00;;;26.17;;
4806;SDS011;2417;52.482;13.432;2023-03-01T01:14:28;57.23;;;25.17;;
4806;SDS011;2417;52.482;13.432;2023-03-01T01:16:57;44.40;;;21.90;;
4806;SDS011;2417;52.482;13.432;2023-03-01T01:19:25;50.47;;;22.20;;
4806;SDS011;2417;52.482;13.432;2023-03-01T01:21:54;46.53;;;22.77;;
4806;SDS011;2417;52.482;13.432;2023-03-01T01:24:22;61.07;;;28.47;;
4806;SDS011;2417;52.482;13.432;2023-03-01T01:26:51;48.50;;;23.10;;
4806;SDS011;2417;52.482;13.432;2023-03-01T01:29:19;55.17;;;26.67;;
4806;SDS011;2417;52.482;13.432;2023-03-01T01:31:47;45.77;;;22.50;;
4806;SDS011;2417;52.482;13.432;2023-03-01T01:34:17;35.37;;;17.97;;
4806;SDS011;2417;52.482;13.432;2023-03-01T01:36:47;39.97;;;18.77;;
4806;SDS011;2417;52.482;13.432;2023-03-01T01:39:16;56.80;;;26.23;;
4806;SDS011;2417;52.482;13.432;2023-03-01T01:41:43;43.77;;;20.07;;
4806;SDS011;2417;52.482;13.432;2023-03-01T01:44:16;38.70;;;18.77;;
4806;SDS011;2417;52.482;13.432;2023-03-01T01:46:45;53.83;;;26.53;;
4806;SDS011;2417;52.482;13.432;2023-03-01T01:49:19;41.53;;;20.50;;
4806;SDS011;2417;52.482;13.432;2023-03-01T01:51:53;34.83;;;16.87;;
4806;SDS011;2417;52.482;13.432;2023-03-01T01:54:23;51.33;;;24.17;;
4806;SDS011;2417;52.482;13.432;2023-03-01T01:56:54;44.50;;;22.83;;
4806;SDS011;2417;52.482;13.432;2023-03-01T01:59:23;29.77;;;15.60;;
4806;SDS011;2417;52.482;13.432;2023-03-01T02:01:52;34.80;;;16.57;;
4806;SDS011;2417;52.482;13.432;2023-03-01T02:04:22;29.77;;;12.87;;
4806;SDS011;2417;52.482;13.432;2023-03-01T02:06:51;27.40;;;13.97;;
4806;SDS011;2417;52.482;13.432;2023-03-01T02:09:22;25.40;;;13.80;;
4806;SDS011;2417;52.482;13.432;2023-03-01T02:11:50;25.87;;;13.83;;
4806;SDS011;2417;52.482;13.432;2023-03-01T02:14:19;25.87;;;12.30;;
4806;SDS011;2417;52.482;13.432;2023-03-01T02:16:48;24.57;;;12.97;;
4806;SDS011;2417;52.482;13.432;2023-03-01T02:19:19;24.40;;;12.07;;
4806;SDS011;2417;52.482;13.432;2023-03-01T02:21:52;35.60;;;16.80;;
4806;SDS011;2417;52.482;13.432;2023-03-01T02:24:25;35.17;;;17.50;;
4806;SDS011;2417;52.482;13.432;2023-03-01T02:26:58;33.13;;;16.27;;
4806;SDS011;2417;52.482;13.432;2023-03-01T02:29:27;32.00;;;14.10;;
4806;SDS011;2417;52.482;13.432;2023-03-01T02:31:56;26.07;;;13.30;;
4806;SDS011;2417;52.482;13.432;2023-03-01T02:34:25;27.13;;;14.60;;
4806;SDS011;2417;52.482;13.432;2023-03-01T02:36:53;31.13;;;15.93;;
4806;SDS011;2417;52.482;13.432;2023-03-01T02:39:23;33.20;;;15.60;;
4806;SDS011;2417;52.482;13.432;2023-03-01T02:41:53;46.40;;;21.83;;
4806;SDS011;2417;52.482;13.432;2023-03-01T02:44:22;29.90;;;15.20;;
4806;SDS011;2417;52.482;13.432;2023-03-01T02:46:51;27.50;;;14.60;;
4806;SDS011;2417;52.482;13.432;2023-03-01T02:49:22;27.27;;;13.87;;
4806;SDS011;2417;52.482;13.432;2023-03-01T02:54:33;29.00;;;13.30;;
4806;SDS011;2417;52.482;13.432;2023-03-01T02:57:04;43.07;;;20.47;;
4806;SDS011;2417;52.482;13.432;2023-03-01T02:59:32;28.00;;;15.10;;
4806;SDS011;2417;52.482;13.432;2023-03-01T03:02:07;29.27;;;14.37;;
4806;SDS011;2417;52.482;13.432;2023-03-01T03:04:35;31.13;;;15.23;;
4806;SDS011;2417;52.482;13.432;2023-03-01T03:07:03;30.07;;;15.67;;
4806;SDS011;2417;52.482;13.432;2023-03-01T03:09:31;30.90;;;15.33;;
4806;SDS011;2417;52.482;13.432;2023-03-01T03:11:59;27.73;;;14.90;;
4806;SDS011;2417;52.482;13.432;2023-03-01T03:14:28;35.77;;;18.57;;
4806;SDS011;2417;52.482;13.432;2023-03-01T03:16:56;32.93;;;18.23;;
4806;SDS011;2417;52.482;13.432;2023-03-01T03:19:25;34.80;;;18.10;;
4806;SDS011;2417;52.482;13.432;2023-03-01T03:21:53;35.13;;;17.80;;
4806;SDS011;2417;52.482;13.432;2023-03-01T03:24:20;40.83;;;19.53;;
4806;SDS011;2417;52.482;13.432;2023-03-01T03:26:48;31.97;;;16.50;;
4806;SDS011;2417;52.482;13.432;2023-03-01T03:29:16;31.23;;;16.23;;
4806;SDS011;2417;52.482;13.432;2023-03-01T03:31:45;33.93;;;17.17;;
4806;SDS011;2417;52.482;13.432;2023-03-01T03:34:13;37.13;;;19.00;;
4806;SDS011;2417;52.482;13.432;2023-03-01T03:36:46;36.63;;;20.80;;
4806;SDS011;2417;52.482;13.432;2023-03-01T03:39:14;43.87;;;21.10;;
4806;SDS011;2417;52.482;13.432;2023-03-01T03:41:44;42.80;;;22.23;;
4806;SDS011;2417;52.482;13.432;2023-03-01T03:44:12;39.97;;;19.23;;
4806;SDS011;2417;52.482;13.432;2023-03-01T03:46:39;41.73;;;21.10;;
4806;SDS011;2417;52.482;13.432;2023-03-01T03:49:07;40.00;;;20.20;;
4806;SDS011;2417;52.482;13.432;2023-03-01T03:51:35;40.20;;;21.20;;
4806;SDS011;2417;52.482;13.432;2023-03-01T03:54:04;38.30;;;20.20;;
4806;SDS011;2417;52.482;13.432;2023-03-01T03:56:32;39.37;;;19.73;;
4806;SDS011;2417;52.482;13.432;2023-03-01T03:59:00;41.23;;;20.40;;
4806;SDS011;2417;52.482;13.432;2023-03-01T04:01:28;40.00;;;20.20;;
4806;SDS011;2417;52.482;13.432;2023-03-01T04:03:55;38.27;;;19.80;;
4806;SDS011;2417;52.482;13.432;2023-03-01T04:06:30;38.40;;;19.90;;
4806;SDS011;2417;52.482;13.432;2023-03-01T04:08:58;39.40;;;20.37;;
4806;SDS011;2417;52.482;13.432;2023-03-01T04:11:30;41.80;;;20.67;;
4806;SDS011;2417;52.482;13.432;2023-03-01T04:14:02;43.57;;;22.27;;
4806;SDS011;2417;52.482;13.432;2023-03-01T04:16:30;39.00;;;19.63;;
4806;SDS011;2417;52.482;13.432;2023-03-01T04:18:59;46.20;;;21.40;;
4806;SDS011;2417;52.482;13.432;2023-03-01T04:21:27;43.23;;;20.77;;
4806;SDS011;2417;52.482;13.432;2023-03-01T04:23:55;41.40;;;20.40;;
4806;SDS011;2417;52.482;13.432;2023-03-01T04:26:23;40.37;;;19.37;;
4806;SDS011;2417;52.482;13.432;2023-03-01T04:28:52;36.30;;;18.63;;
4806;SDS011;2417;52.482;13.432;2023-03-01T04:31:20;45.23;;;21.17;;
4806;SDS011;2417;52.482;13.432;2023-03-01T04:33:49;47.03;;;24.23;;
4806;SDS011;2417;52.482;13.432;2023-03-01T04:36:18;38.90;;;19.33;;
4806;SDS011;2417;52.482;13.432;2023-03-01T04:38:47;42.07;;;20.60;;
4806;SDS011;2417;52.482;13.432;2023-03-01T04:41:15;40.40;;;21.87;;
4806;SDS011;2417;52.482;13.432;2023-03-01T04:43:43;48.30;;;22.10;;
4806;SDS011;2417;52.482;13.432;2023-03-01T04:46:13;39.43;;;20.90;;
4806;SDS011;2417;52.482;13.432;2023-03-01T04:48:41;41.63;;;21.40;;
4806;SDS011;2417;52.482;13.432;2023-03-01T04:51:10;39.67;;;20.77;;
4806;SDS011;2417;52.482;13.432;2023-03-01T04:53:40;35.00;;;18.70;;
4806;SDS011;2417;52.482;13.432;2023-03-01T04:56:08;39.97;;;20.73;;
4806;SDS011;2417;52.482;13.432;2023-03-01T04:58:37;44.13;;;21.87;;
4806;SDS011;2417;52.482;13.432;2023-03-01T05:01:09;35.43;;;19.10;;
4806;SDS011;2417;52.482;13.432;2023-03-01T05:03:44;40.83;;;20.20;;
4806;SDS011;2417;52.482;13.432;2023-03-01T05:06:12;39.53;;;20.70;;
4806;SDS011;2417;52.482;13.432;2023-03-01T05:08:40;51.60;;;23.47;;
4806;SDS011;2417;52.482;13.432;2023-03-01T05:11:08;42.47;;;20.70;;
4806;SDS011;2417;52.482;13.432;2023-03-01T05:13:37;38.37;;;20.37;;
4806;SDS011;2417;52.482;13.432;2023-03-01T05:16:05;41.00;;;21.57;;
4806;SDS011;2417;52.482;13.432;2023-03-01T05:18:38;47.73;;;22.40;;
4806;SDS011;2417;52.482;13.432;2023-03-01T05:21:08;44.57;;;22.03;;
4806;SDS011;2417;52.482;13.432;2023-03-01T05:23:37;39.73;;;20.00;;
4806;SDS011;2417;52.482;13.432;2023-03-01T05:26:05;39.10;;;20.60;;
4806;SDS011;2417;52.482;13.432;2023-03-01T05:28:51;39.00;;;20.30;;
4806;SDS011;2417;52.482;13.432;2023-03-01T05:31:22;39.63;;;20.30;;
4806;SDS011;2417;52.482;13.432;2023-03-01T05:33:50;41.27;;;21.40;;
4806;SDS011;2417;52.482;13.432;2023-03-01T05:36:20;37.87;;;20.03;;
4806;SDS011;2417;52.482;13.432;2023-03-01T05:38:48;41.37;;;20.63;;
4806;SDS011;2417;52.482;13.432;2023-03-01T05:41:16;49.70;;;22.53;;
4806;SDS011;2417;52.482;13.432;2023-03-01T05:43:44;36.83;;;20.13;;
4806;SDS011;2417;52.482;13.432;2023-03-01T05:46:12;47.40;;;23.70;;
4806;SDS011;2417;52.482;13.432;2023-03-01T05:48:42;45.37;;;22.50;;
4806;SDS011;2417;52.482;13.432;2023-03-01T05:51:10;53.30;;;20.90;;
4806;SDS011;2417;52.482;13.432;2023-03-01T05:53:39;45.93;;;22.80;;
4806;SDS011;2417;52.482;13.432;2023-03-01T05:56:08;45.40;;;22.50;;
4806;SDS011;2417;52.482;13.432;2023-03-01T05:58:35;42.10;;;22.07;;
4806;SDS011;2417;52.482;13.432;2023-03-01T06:01:05;41.13;;;21.17;;
4806;SDS011;2417;52.482;13.432;2023-03-01T06:03:33;36.80;;;19.30;;
4806;SDS011;2417;52.482;13.432;2023-03-01T06:06:01;41.57;;;21.43;;
4806;SDS011;2417;52.482;13.432;2023-03-01T06:08:29;41.13;;;20.30;;
4806;SDS011;2417;52.482;13.432;2023-03-01T06:10:58;41.90;;;21.07;;
4806;SDS011;2417;52.482;13.432;2023-03-01T06:13:25;38.50;;;20.47;;
4806;SDS011;2417;52.482;13.432;2023-03-01T06:15:53;41.97;;;21.20;;
4806;SDS011;2417;52.482;13.432;2023-03-01T06:18:21;38.30;;;20.33;;
4806;SDS011;2417;52.482;13.432;2023-03-01T06:20:52;35.93;;;18.83;;
4806;SDS011;2417;52.482;13.432;2023-03-01T06:23:20;40.00;;;20.17;;
4806;SDS011;2417;52.482;13.432;2023-03-01T06:25:48;38.43;;;19.50;;
4806;SDS011;2417;52.482;13.432;2023-03-01T06:28:17;36.93;;;20.80;;
4806;SDS011;2417;52.482;13.432;2023-03-01T06:30:49;37.90;;;19.97;;
4806;SDS011;2417;52.482;13.432;2023-03-01T06:33:18;38.40;;;21.00;;
4806;SDS011;2417;52.482;13.432;2023-03-01T06:35:46;38.03;;;19.83;;
4806;SDS011;2417;52.482;13.432;2023-03-01T06:38:14;40.80;;;20.70;;
4806;SDS011;2417;52.482;13.432;2023-03-01T06:40:45;41.93;;;19.40;;
4806;SDS011;2417;52.482;13.432;2023-03-01T06:43:19;40.50;;;20.80;;
4806;SDS011;2417;52.482;13.432;2023-03-01T06:45:47;41.27;;;21.57;;
4806;SDS011;2417;52.482;13.432;2023-03-01T06:48:15;43.93;;;21.67;;
4806;SDS011;2417;52.482;13.432;2023-03-01T06:50:43;37.90;;;19.50;;
4806;SDS011;2417;52.482;13.432;2023-03-01T06:53:12;36.03;;;19.97;;
4806;SDS011;2417;52.482;13.432;2023-03-01T06:55:40;39.33;;;20.27;;
4806;SDS011;2417;52.482;13.432;2023-03-01T06:58:08;39.40;;;21.03;;
4806;SDS011;2417;52.482;13.432;2023-03-01T07:00:37;33.03;;;18.23;;
4806;SDS011;2417;52.482;13.432;2023-03-01T07:03:07;40.10;;;19.53;;
4806;SDS011;2417;52.482;13.432;2023-03-01T07:05:35;37.70;;;18.90;;
4806;SDS011;2417;52.482;13.432;2023-03-01T07:08:04;37.70;;;19.40;;
4806;SDS011;2417;52.482;13.432;2023-03-01T07:10:31;37.97;;;19.63;;
4806;SDS011;2417;52.482;13.432;2023-03-01T07:13:00;45.23;;;19.93;;
4806;SDS011;2417;52.482;13.432;2023-03-01T07:15:28;44.93;;;19.80;;
4806;SDS011;2417;52.482;13.432;2023-03-01T07:17:58;43.97;;;20.40;;
4806;SDS011;2417;52.482;13.432;2023-03-01T07:20:25;40.97;;;21.13;;
4806;SDS011;2417;52.482;13.432;2023-03-01T07:22:55;39.43;;;21.80;;
4806;SDS011;2417;52.482;13.432;2023-03-01T07:25:24;45.07;;;23.80;;
4806;SDS011;2417;52.482;13.432;2023-03-01T07:27:53;44.23;;;23.00;;
4806;SDS011;2417;52.482;13.432;2023-03-01T07:30:21;49.43;;;23.87;;
4806;SDS011;2417;52.482;13.432;2023-03-01T07:32:53;43.63;;;23.57;;
4806;SDS011;2417;52.482;13.432;2023-03-01T07:35:23;45.67;;;23.67;;
4806;SDS011;2417;52.482;13.432;2023-03-01T07:37:51;44.40;;;25.07;;
4806;SDS011;2417;52.482;13.432;2023-03-01T07:40:19;44.53;;;23.27;;
4806;SDS011;2417;52.482;13.432;2023-03-01T07:42:46;47.50;;;24.20;;
4806;SDS011;2417;52.482;13.432;2023-03-01T07:45:14;45.17;;;25.10;;
4806;SDS011;2417;52.482;13.432;2023-03-01T07:47:42;48.73;;;23.73;;
4806;SDS011;2417;52.482;13.432;2023-03-01T07:50:10;48.30;;;25.70;;
4806;SDS011;2417;52.482;13.432;2023-03-01T07:52:41;47.47;;;25.33;;
4806;SDS011;2417;52.482;13.432;2023-03-01T07:55:09;50.50;;;24.33;;
4806;SDS011;2417;52.482;13.432;2023-03-01T07:57:37;48.10;;;25.20;;
4806;SDS011;2417;52.482;13.432;2023-03-01T08:00:05;45.27;;;22.67;;
4806;SDS011;2417;52.482;13.432;2023-03-01T08:02:39;48.60;;;22.53;;
4806;SDS011;2417;52.482;13.432;2023-03-01T08:05:08;39.97;;;21.73;;
4806;SDS011;2417;52.482;13.432;2023-03-01T08:07:36;47.27;;;22.03;;
4806;SDS011;2417;52.482;13.432;2023-03-01T08:10:06;48.57;;;20.70;;
4806;SDS011;2417;52.482;13.432;2023-03-01T08:12:35;57.03;;;21.23;;
4806;SDS011;2417;52.482;13.432;2023-03-01T08:15:02;45.67;;;21.87;;
4806;SDS011;2417;52.482;13.432;2023-03-01T08:17:30;42.37;;;21.93;;
4806;SDS011;2417;52.482;13.432;2023-03-01T08:19:58;48.03;;;22.83;;
4806;SDS011;2417;52.482;13.432;2023-03-01T08:22:26;45.90;;;22.40;;
4806;SDS011;2417;52.482;13.432;2023-03-01T08:24:54;38.87;;;20.27;;
4806;SDS011;2417;52.482;13.432;2023-03-01T08:27:24;42.77;;;20.30;;
4806;SDS011;2417;52.482;13.432;2023-03-01T08:29:52;48.33;;;20.30;;
4806;SDS011;2417;52.482;13.432;2023-03-01T08:32:20;35.17;;;17.97;;
4806;SDS011;2417;52.482;13.432;2023-03-01T08:34:48;37.63;;;19.00;;
4806;SDS011;2417;52.482;13.432;2023-03-01T08:37:16;32.43;;;17.80;;
4806;SDS011;2417;52.482;13.432;2023-03-01T08:39:43;39.43;;;19.47;;
4806;SDS011;2417;52.482;13.432;2023-03-01T08:42:11;40.60;;;18.40;;
4806;SDS011;2417;52.482;13.432;2023-03-01T08:44:41;32.60;;;19.00;;
4806;SDS011;2417;52.482;13.432;2023-03-01T08:47:11;33.20;;;17.30;;
4806;SDS011;2417;52.482;13.432;2023-03-01T08:49:39;37.17;;;19.70;;
4806;SDS011;2417;52.482;13.432;2023-03-01T08:52:07;31.37;;;16.73;;
4806;SDS011;2417;52.482;13.432;2023-03-01T08:54:35;29.63;;;16.00;;
4806;SDS011;2417;52.482;13.432;2023-03-01T08:57:03;31.37;;;13.30;;
4806;SDS011;2417;52.482;13.432;2023-03-01T08:59:31;28.83;;;12.07;;
4806;SDS011;2417;52.482;13.432;2023-03-01T09:02:05;24.10;;;10.60;;
4806;SDS011;2417;52.482;13.432;2023-03-01T09:04:34;21.80;;;10.70;;
4806;SDS011;2417;52.482;13.432;2023-03-01T09:07:01;18.40;;;9.33;;
4806;SDS011;2417;52.482;13.432;2023-03-01T09:09:29;22.20;;;10.47;;
4806;SDS011;2417;52.482;13.432;2023-03-01T09:11:59;19.13;;;9.83;;
4806;SDS011;2417;52.482;13.432;2023-03-01T09:14:27;26.53;;;10.97;;
4806;SDS011;2417;52.482;13.432;2023-03-01T09:16:55;20.73;;;10.60;;
4806;SDS011;2417;52.482;13.432;2023-03-01T09:19:25;18.80;;;10.57;;
4806;SDS011;2417;52.482;13.432;2023-03-01T09:21:53;26.87;;;12.23;;
4806;SDS011;2417;52.482;13.432;2023-03-01T09:24:23;30.33;;;14.07;;
4806;SDS011;2417;52.482;13.432;2023-03-01T09:26:52;18.77;;;9.87;;
4806;SDS011;2417;52.482;13.432;2023-03-01T09:29:20;31.93;;;15.40;;
4806;SDS011;2417;52.482;13.432;2023-03-01T09:31:48;27.70;;;13.13;;
4806;SDS011;2417;52.482;13.432;2023-03-01T09:34:16;21.70;;;11.07;;
4806;SDS011;2417;52.482;13.432;2023-03-01T09:36:52;28.33;;;11.63;;
4806;SDS011;2417;52.482;13.432;2023-03-01T09:39:20;21.67;;;11.17;;
4806;SDS011;2417;52.482;13.432;2023-03-01T09:41:49;29.20;;;11.70;;
4806;SDS011;2417;52.482;13.432;2023-03-01T09:44:23;26.73;;;13.07;;
4806;SDS011;2417;52.482;13.432;2023-03-01T09:46:52;20.13;;;9.97;;
4806;SDS011;2417;52.482;13.432;2023-03-01T09:49:21;27.13;;;12.00;;
4806;SDS011;2417;52.482;13.432;2023-03-01T09:51:56;21.43;;;11.30;;
4806;SDS011;2417;52.482;13.432;2023-03-01T09:54:25;42.23;;;17.90;;
4806;SDS011;2417;52.482;13.432;2023-03-01T09:56:57;26.33;;;12.90;;
4806;SDS011;2417;52.482;13.432;2023-03-01T09:59:28;24.60;;;10.57;;
4806;SDS011;2417;52.482;13.432;2023-03-01T10:02:00;24.53;;;10.40;;
4806;SDS011;2417;52.482;13.432;2023-03-01T10:04:38;18.23;;;9.07;;
4806;SDS011;2417;52.482;13.432;2023-03-01T10:07:22;20.23;;;10.17;;
4806;SDS011;2417;52.482;13.432;2023-03-01T10:09:54;17.63;;;9.90;;
4806;SDS011;2417;52.482;13.432;2023-03-01T10:12:23;22.23;;;9.90;;
4806;SDS011;2417;52.482;13.432;2023-03-01T10:14:54;20.27;;;8.90;;
4806;SDS011;2417;52.482;13.432;2023-03-01T10:17:24;25.23;;;7.73;;
4806;SDS011;2417;52.482;13.432;2023-03-01T10:19:53;22.83;;;10.87;;
4806;SDS011;2417;52.482;13.432;2023-03-01T10:22:24;13.07;;;6.77;;
4806;SDS011;2417;52.482;13.432;2023-03-01T10:24:56;18.47;;;8.03;;
4806;SDS011;2417;52.482;13.432;2023-03-01T10:27:25;14.60;;;7.63;;
4806;SDS011;2417;52.482;13.432;2023-03-01T10:29:55;14.60;;;6.83;;
4806;SDS011;2417;52.482;13.432;2023-03-01T10:32:24;13.60;;;6.93;;
4806;SDS011;2417;52.482;13.432;2023-03-01T10:34:52;14.03;;;6.43;;
4806;SDS011;2417;52.482;13.432;2023-03-01T10:37:20;17.13;;;8.13;;
4806;SDS011;2417;52.482;13.432;2023-03-01T10:39:56;15.50;;;7.50;;
4806;SDS011;2417;52.482;13.432;2023-03-01T10:42:26;16.40;;;8.50;;
4806;SDS011;2417;52.482;13.432;2023-03-01T10:44:54;16.50;;;7.90;;
4806;SDS011;2417;52.482;13.432;2023-03-01T10:47:22;16.40;;;8.37;;
4806;SDS011;2417;52.482;13.432;2023-03-01T10:49:52;13.33;;;6.97;;
4806;SDS011;2417;52.482;13.432;2023-03-01T10:52:23;16.93;;;7.77;;
4806;SDS011;2417;52.482;13.432;2023-03-01T10:54:52;12.50;;;6.33;;
4806;SDS011;2417;52.482;13.432;2023-03-01T10:57:27;16.43;;;7.07;;
4806;SDS011;2417;52.482;13.432;2023-03-01T11:00:00;16.50;;;6.47;;
4806;SDS011;2417;52.482;13.432;2023-03-01T11:02:30;13.10;;;6.47;;
4806;SDS011;2417;52.482;13.432;2023-03-01T11:05:00;15.33;;;7.57;;
4806;SDS011;2417;52.482;13.432;2023-03-01T11:07:28;14.33;;;7.13;;
4806;SDS011;2417;52.482;13.432;2023-03-01T11:09:56;15.53;;;8.13;;
4806;SDS011;2417;52.482;13.432;2023-03-01T11:12:28;16.43;;;7.40;;
4806;SDS011;2417;52.482;13.432;2023-03-01T11:14:57;15.37;;;8.60;;
4806;SDS011;2417;52.482;13.432;2023-03-01T11:17:25;16.80;;;8.03;;
4806;SDS011;2417;52.482;13.432;2023-03-01T11:20:01;21.23;;;8.93;;
4806;SDS011;2417;52.482;13.432;2023-03-01T11:22:31;19.43;;;8.27;;
4806;SDS011;2417;52.482;13.432;2023-03-01T11:25:00;13.50;;;6.30;;
4806;SDS011;2417;52.482;13.432;2023-03-01T11:27:38;16.47;;;7.07;;
4806;SDS011;2417;52.482;13.432;2023-03-01T11:30:18;14.83;;;6.53;;
4806;SDS011;2417;52.482;13.432;2023-03-01T11:32:48;11.13;;;6.00;;
4806;SDS011;2417;52.482;13.432;2023-03-01T11:35:19;19.93;;;8.33;;
4806;SDS011;2417;52.482;13.432;2023-03-01T11:37:53;14.17;;;6.83;;
4806;SDS011;2417;52.482;13.432;2023-03-01T11:40:24;16.10;;;7.57;;
4806;SDS011;2417;52.482;13.432;2023-03-01T11:42:59;16.53;;;6.80;;
4806;SDS011;2417;52.482;13.432;2023-03-01T11:45:31;15.20;;;7.30;;
4806;SDS011;2417;52.482;13.432;2023-03-01T11:48:11;9.87;;;4.63;;
4806;SDS011;2417;52.482;13.432;2023-03-01T11:50:45;15.00;;;6.27;;
4806;SDS011;2417;52.482;13.432;2023-03-01T11:53:20;16.50;;;6.50;;
4806;SDS011;2417;52.482;13.432;2023-03-01T11:56:21;16.77;;;7.47;;
4806;SDS011;2417;52.482;13.432;2023-03-01T11:59:07;17.30;;;7.80;;
4806;SDS011;2417;52.482;13.432;2023-03-01T12:01:49;20.63;;;9.13;;
4806;SDS011;2417;52.482;13.432;2023-03-01T12:04:32;13.17;;;6.43;;
4806;SDS011;2417;52.482;13.432;2023-03-01T12:07:05;9.07;;;4.40;;
4806;SDS011;2417;52.482;13.432;2023-03-01T12:09:38;7.70;;;3.60;;
4806;SDS011;2417;52.482;13.432;2023-03-01T12:12:23;12.10;;;4.77;;
4806;SDS011;2417;52.482;13.432;2023-03-01T12:15:01;13.73;;;4.60;;
4806;SDS011;2417;52.482;13.432;2023-03-01T12:17:40;8.80;;;3.47;;
4806;SDS011;2417;52.482;13.432;2023-03-01T12:20:18;14.40;;;5.20;;
4806;SDS011;2417;52.482;13.432;2023-03-01T12:22:53;8.90;;;4.30;;
4806;SDS011;2417;52.482;13.432;2023-03-01T12:25:25;16.30;;;6.30;;
4806;SDS011;2417;52.482;13.432;2023-03-01T12:28:04;13.23;;;4.30;;
4806;SDS011;2417;52.482;13.432;2023-03-01T12:30:42;11.07;;;4.40;;
4806;SDS011;2417;52.482;13.432;2023-03-01T12:33:17;15.17;;;3.80;;
4806;SDS011;2417;52.482;13.432;2023-03-01T12:35:54;11.50;;;5.13;;
4806;SDS011;2417;52.482;13.432;2023-03-01T12:38:29;15.67;;;4.40;;
4806;SDS011;2417;52.482;13.432;2023-03-01T12:41:08;9.50;;;4.30;;
4806;SDS011;2417;52.482;13.432;2023-03-01T12:43:43;25.13;;;13.93;;
4806;SDS011;2417;52.482;13.432;2023-03-01T12:46:21;17.57;;;9.60;;
4806;SDS011;2417;52.482;13.432;2023-03-01T12:48:55;14.13;;;3.53;;
4806;SDS011;2417;52.482;13.432;2023-03-01T12:51:26;15.90;;;7.67;;
4806;SDS011;2417;52.482;13.432;2023-03-01T12:53:56;11.60;;;3.50;;
4806;SDS011;2417;52.482;13.432;2023-03-01T12:56:27;8.00;;;3.77;;
4806;SDS011;2417;52.482;13.432;2023-03-01T12:59:00;11.87;;;5.27;;
4806;SDS011;2417;52.482;13.432;2023-03-01T13:01:34;13.27;;;3.70;;
4806;SDS011;2417;52.482;13.432;2023-03-01T13:04:07;14.23;;;5.27;;
4806;SDS011;2417;52.482;13.432;2023-03-01T13:06:40;11.93;;;3.10;;
4806;SDS011;2417;52.482;13.432;2023-03-01T13:09:14;7.63;;;3.43;;
4806;SDS011;2417;52.482;13.432;2023-03-01T13:11:47;8.43;;;3.53;;
4806;SDS011;2417;52.482;13.432;2023-03-01T13:17:04;12.67;;;3.30;;
4806;SDS011;2417;52.482;13.432;2023-03-01T13:19:32;10.93;;;4.47;;
4806;SDS011;2417;52.482;13.432;2023-03-01T13:22:24;17.77;;;6.50;;
4806;SDS011;2417;52.482;13.432;2023-03-01T13:25:00;14.30;;;5.00;;
4806;SDS011;2417;52.482;13.432;2023-03-01T13:27:28;10.50;;;3.80;;
4806;SDS011;2417;52.482;13.432;2023-03-01T13:29:57;12.13;;;4.80;;
4806;SDS011;2417;52.482;13.432;2023-03-01T13:32:32;11.20;;;4.70;;
4806;SDS011;2417;52.482;13.432;2023-03-01T13:40:58;12.53;;;4.17;;
4806;SDS011;2417;52.482;13.432;2023-03-01T13:43:28;10.00;;;4.37;;
4806;SDS011;2417;52.482;13.432;2023-03-01T13:45:56;12.60;;;4.30;;
4806;SDS011;2417;52.482;13.432;2023-03-01T13:48:28;13.07;;;5.47;;
4806;SDS011;2417;52.482;13.432;2023-03-01T13:50:57;12.20;;;4.80;;
4806;SDS011;2417;52.482;13.432;2023-03-01T13:53:28;13.73;;;4.27;;
4806;SDS011;2417;52.482;13.432;2023-03-01T13:55:58;15.30;;;3.70;;
4806;SDS011;2417;52.482;13.432;2023-03-01T13:58:28;9.70;;;3.60;;
4806;SDS011;2417;52.482;13.432;2023-03-01T14:00:57;13.00;;;4.63;;
4806;SDS011;2417;52.482;13.432;2023-03-01T14:03:26;21.37;;;9.43;;
4806;SDS011;2417;52.482;13.432;2023-03-01T14:05:59;10.97;;;5.30;;
4806;SDS011;2417;52.482;13.432;2023-03-01T14:08:39;10.20;;;4.77;;
4806;SDS011;2417;52.482;13.432;2023-03-01T14:14:01;10.00;;;3.60;;
4806;SDS011;2417;52.482;13.432;2023-03-01T14:16:35;12.57;;;4.63;;
4806;SDS011;2417;52.482;13.432;2023-03-01T14:19:12;7.87;;;3.50;;
4806;SDS011;2417;52.482;13.432;2023-03-01T14:22:00;10.90;;;4.00;;
4806;SDS011;2417;52.482;13.432;2023-03-01T14:24:31;12.33;;;4.53;;
4806;SDS011;2417;52.482;13.432;2023-03-01T14:27:01;9.67;;;4.60;;
4806;SDS011;2417;52.482;13.432;2023-03-01T14:29:33;8.50;;;3.37;;
4806;SDS011;2417;52.482;13.432;2023-03-01T14:32:12;11.80;;;3.97;;
4806;SDS011;2417;52.482;13.432;2023-03-01T14:34:45;9.57;;;3.97;;
4806;SDS011;2417;52.482;13.432;2023-03-01T14:37:20;10.40;;;3.90;;
4806;SDS011;2417;52.482;13.432;2023-03-01T14:39:48;13.97;;;3.70;;
4806;SDS011;2417;52.482;13.432;2023-03-01T14:42:15;9.57;;;4.17;;
4806;SDS011;2417;52.482;13.432;2023-03-01T14:44:44;9.07;;;3.00;;
4806;SDS011;2417;52.482;13.432;2023-03-01T14:47:14;9.17;;;3.90;;
4806;SDS011;2417;52.482;13.432;2023-03-01T14:49:42;7.67;;;3.67;;
4806;SDS011;2417;52.482;13.432;2023-03-01T14:52:17;8.77;;;3.83;;
4806;SDS011;2417;52.482;13.432;2023-03-01T14:54:48;8.80;;;3.97;;
4806;SDS011;2417;52.482;13.432;2023-03-01T14:57:17;7.40;;;3.30;;
4806;SDS011;2417;52.482;13.432;2023-03-01T14:59:45;10.60;;;4.30;;
4806;SDS011;2417;52.482;13.432;2023-03-01T15:02:15;13.50;;;3.83;;
4806;SDS011;2417;52.482;13.432;2023-03-01T15:04:46;9.10;;;4.03;;
4806;SDS011;2417;52.482;13.432;2023-03-01T15:07:15;6.97;;;3.57;;
4806;SDS011;2417;52.482;13.432;2023-03-01T15:09:43;10.30;;;3.93;;
4806;SDS011;2417;52.482;13.432;2023-03-01T15:12:32;10.70;;;4.33;;